SPZUP EPOB-EPPI
Flight info
| Callsign | SPZUP |
|---|---|
| Flight time | N/A |
| Altitude | 1700 |
| Route | 523960N0164631E/EPOB DCT 524207N0163553E/JARYSZEWO DCT 524149N0161222E/CHOJNO DCT 523641N0161457E/CHRZYPSKO |
| Aircraft | M18/L-GNSS/S |
Departure
| Time | N/A |
|---|---|
| Airport | EPOB |
Arrival
| Time | 2026-05-05 17:16 |
|---|---|
| Airport | Piła Airfield (EPPI) |
| Time | Latitude | Longitude | Altitude | Speed | Heading |
|---|---|---|---|---|---|
| 2026-05-05 16:21 | 52.66789 | 16.77178 | 202 ft | 0 kts | 183° |
| 2026-05-05 16:35 | 52.66784 | 16.77179 | 202 ft | 2 kts | 167° |
| 2026-05-05 16:35 | 52.66769 | 16.77185 | 202 ft | 0 kts | 165° |
| 2026-05-05 16:35 | 52.66749 | 16.77202 | 202 ft | 12 kts | 147° |
| 2026-05-05 16:35 | 52.66681 | 16.77387 | 202 ft | 18 kts | 106° |
| 2026-05-05 16:36 | 52.66660 | 16.77534 | 202 ft | 8 kts | 100° |
| 2026-05-05 16:36 | 52.66651 | 16.77621 | 202 ft | 6 kts | 98° |
| 2026-05-05 16:36 | 52.66651 | 16.77715 | 202 ft | 0 kts | 53° |
| 2026-05-05 16:37 | 52.66672 | 16.77768 | 202 ft | 0 kts | 63° |
| 2026-05-05 16:37 | 52.66673 | 16.77794 | 202 ft | 15 kts | 113° |
| 2026-05-05 16:37 | 52.66569 | 16.78033 | 202 ft | 12 kts | 276° |
| 2026-05-05 16:37 | 52.66563 | 16.78040 | 202 ft | 4 kts | 333° |
| 2026-05-05 16:38 | 52.66550 | 16.78063 | 202 ft | 10 kts | 103° |
| 2026-05-05 16:38 | 52.66546 | 16.78077 | 202 ft | 0 kts | 192° |
| 2026-05-05 16:38 | 52.66537 | 16.78067 | 202 ft | 0 kts | 314° |
| 2026-05-05 16:38 | 52.66553 | 16.78033 | 202 ft | 16 kts | 299° |
| 2026-05-05 16:39 | 52.66687 | 16.77657 | 211 ft | 61 kts | 309° |
| 2026-05-05 16:39 | 52.66763 | 16.76854 | 409 ft | 76 kts | 292° |
| 2026-05-05 16:39 | 52.66975 | 16.75957 | 606 ft | 86 kts | 297° |
| 2026-05-05 16:39 | 52.67200 | 16.75007 | 814 ft | 92 kts | 297° |
| 2026-05-05 16:40 | 52.67427 | 16.73921 | 904 ft | 106 kts | 289° |
| 2026-05-05 16:40 | 52.67446 | 16.72630 | 897 ft | 123 kts | 267° |
| 2026-05-05 16:40 | 52.67375 | 16.71178 | 905 ft | 125 kts | 270° |
| 2026-05-05 16:40 | 52.67309 | 16.69846 | 1179 ft | 113 kts | 263° |
| 2026-05-05 16:41 | 52.67197 | 16.68429 | 1111 ft | 125 kts | 271° |
| 2026-05-05 16:41 | 52.67211 | 16.67075 | 1279 ft | 122 kts | 274° |
| 2026-05-05 16:41 | 52.67226 | 16.65636 | 1294 ft | 124 kts | 281° |
| 2026-05-05 16:41 | 52.67421 | 16.64242 | 1271 ft | 127 kts | 290° |
| 2026-05-05 16:42 | 52.67567 | 16.62833 | 1340 ft | 124 kts | 274° |
| 2026-05-05 16:42 | 52.67668 | 16.61374 | 1246 ft | 129 kts | 288° |
| 2026-05-05 16:42 | 52.67886 | 16.60011 | 1379 ft | 120 kts | 287° |
| 2026-05-05 16:42 | 52.68296 | 16.58837 | 1180 ft | 127 kts | 331° |
| 2026-05-05 16:43 | 52.69120 | 16.58645 | 1152 ft | 115 kts | 15° |
| 2026-05-05 16:43 | 52.69879 | 16.59066 | 1055 ft | 118 kts | 23° |
| 2026-05-05 16:43 | 52.70576 | 16.59667 | 960 ft | 107 kts | 32° |
| 2026-05-05 16:43 | 52.71191 | 16.60361 | 757 ft | 110 kts | 36° |
| 2026-05-05 16:44 | 52.71646 | 16.61279 | 712 ft | 102 kts | 77° |
| 2026-05-05 16:44 | 52.71230 | 16.62124 | 673 ft | 113 kts | 169° |
| 2026-05-05 16:44 | 52.70678 | 16.61398 | 646 ft | 108 kts | 266° |
| 2026-05-05 16:44 | 52.70713 | 16.60205 | 588 ft | 109 kts | 278° |
| 2026-05-05 16:45 | 52.70719 | 16.59075 | 725 ft | 96 kts | 267° |
| 2026-05-05 16:45 | 52.70598 | 16.57949 | 705 ft | 100 kts | 262° |
| 2026-05-05 16:45 | 52.70474 | 16.56863 | 778 ft | 95 kts | 264° |
| 2026-05-05 16:45 | 52.70338 | 16.55763 | 790 ft | 97 kts | 256° |
| 2026-05-05 16:46 | 52.70031 | 16.54776 | 796 ft | 101 kts | 237° |
| 2026-05-05 16:46 | 52.69624 | 16.53828 | 849 ft | 97 kts | 236° |
| 2026-05-05 16:46 | 52.69262 | 16.52874 | 867 ft | 99 kts | 242° |
| 2026-05-05 16:46 | 52.68915 | 16.51919 | 921 ft | 97 kts | 238° |
| 2026-05-05 16:47 | 52.68481 | 16.51050 | 939 ft | 99 kts | 220° |
| 2026-05-05 16:47 | 52.67956 | 16.50305 | 972 ft | 99 kts | 223° |
| 2026-05-05 16:47 | 52.67568 | 16.49364 | 962 ft | 105 kts | 258° |
| 2026-05-05 16:47 | 52.67512 | 16.48164 | 1051 ft | 108 kts | 259° |
| 2026-05-05 16:48 | 52.67191 | 16.46982 | 1109 ft | 114 kts | 242° |
| 2026-05-05 16:48 | 52.66874 | 16.45798 | 1174 ft | 115 kts | 257° |
| 2026-05-05 16:48 | 52.66713 | 16.44491 | 1205 ft | 119 kts | 261° |
| 2026-05-05 16:48 | 52.66466 | 16.43155 | 1205 ft | 123 kts | 250° |
| 2026-05-05 16:49 | 52.66053 | 16.41880 | 1127 ft | 132 kts | 238° |
| 2026-05-05 16:49 | 52.65601 | 16.40560 | 1073 ft | 132 kts | 245° |
| 2026-05-05 16:49 | 52.65192 | 16.39203 | 1018 ft | 133 kts | 246° |
| 2026-05-05 16:49 | 52.64812 | 16.37839 | 973 ft | 131 kts | 248° |
| 2026-05-05 16:50 | 52.64462 | 16.36429 | 916 ft | 131 kts | 251° |
| 2026-05-05 16:50 | 52.64157 | 16.35046 | 927 ft | 127 kts | 253° |
| 2026-05-05 16:50 | 52.63843 | 16.33663 | 923 ft | 127 kts | 251° |
| 2026-05-05 16:50 | 52.63548 | 16.32304 | 959 ft | 123 kts | 254° |
| 2026-05-05 16:51 | 52.63274 | 16.30970 | 959 ft | 124 kts | 253° |
| 2026-05-05 16:51 | 52.63063 | 16.29626 | 1023 ft | 121 kts | 259° |
| 2026-05-05 16:51 | 52.62822 | 16.28252 | 996 ft | 126 kts | 250° |
| 2026-05-05 16:51 | 52.62533 | 16.26894 | 994 ft | 125 kts | 256° |
| 2026-05-05 16:52 | 52.62253 | 16.25547 | 1015 ft | 125 kts | 251° |
| 2026-05-05 16:52 | 52.61973 | 16.24193 | 1038 ft | 124 kts | 255° |
| 2026-05-05 16:52 | 52.62017 | 16.22798 | 983 ft | 122 kts | 297° |
| 2026-05-05 16:52 | 52.62634 | 16.22003 | 913 ft | 112 kts | 359° |
| 2026-05-05 16:53 | 52.63319 | 16.22504 | 920 ft | 103 kts | 34° |
| 2026-05-05 16:53 | 52.63942 | 16.23010 | 981 ft | 102 kts | 18° |
| 2026-05-05 16:53 | 52.64646 | 16.23171 | 1024 ft | 103 kts | 2° |
| 2026-05-05 16:53 | 52.65351 | 16.22994 | 1044 ft | 106 kts | 349° |
| 2026-05-05 16:54 | 52.66062 | 16.22632 | 1089 ft | 104 kts | 346° |
| 2026-05-05 16:54 | 52.66746 | 16.22227 | 1104 ft | 107 kts | 342° |
| 2026-05-05 16:54 | 52.67433 | 16.21725 | 1140 ft | 106 kts | 341° |
| 2026-05-05 16:54 | 52.68118 | 16.21274 | 1140 ft | 108 kts | 344° |
| 2026-05-05 16:55 | 52.68841 | 16.20852 | 1128 ft | 110 kts | 346° |
| 2026-05-05 16:55 | 52.69619 | 16.20540 | 987 ft | 117 kts | 351° |
| 2026-05-05 16:55 | 52.70385 | 16.20306 | 1028 ft | 107 kts | 5° |
| 2026-05-05 16:55 | 52.71104 | 16.20847 | 789 ft | 117 kts | 32° |
| 2026-05-05 16:56 | 52.71701 | 16.21640 | 859 ft | 105 kts | 40° |
| 2026-05-05 16:56 | 52.72247 | 16.22456 | 855 ft | 105 kts | 42° |
| 2026-05-05 16:56 | 52.72769 | 16.23270 | 916 ft | 101 kts | 43° |
| 2026-05-05 16:56 | 52.73265 | 16.24058 | 968 ft | 101 kts | 43° |
| 2026-05-05 16:57 | 52.73781 | 16.24885 | 955 ft | 104 kts | 44° |
| 2026-05-05 16:57 | 52.74320 | 16.25748 | 897 ft | 106 kts | 42° |
| 2026-05-05 16:57 | 52.74855 | 16.26553 | 911 ft | 106 kts | 39° |
| 2026-05-05 16:57 | 52.75425 | 16.27335 | 934 ft | 102 kts | 37° |
| 2026-05-05 16:58 | 52.76009 | 16.27995 | 945 ft | 104 kts | 32° |
| 2026-05-05 16:58 | 52.76638 | 16.28620 | 960 ft | 103 kts | 29° |
| 2026-05-05 16:58 | 52.77283 | 16.29106 | 962 ft | 106 kts | 17° |
| 2026-05-05 16:58 | 52.78027 | 16.29168 | 941 ft | 110 kts | 355° |
| 2026-05-05 16:59 | 52.78798 | 16.29012 | 944 ft | 109 kts | 356° |
| 2026-05-05 16:59 | 52.79550 | 16.28846 | 932 ft | 111 kts | 355° |
| 2026-05-05 16:59 | 52.80315 | 16.28729 | 922 ft | 109 kts | 7° |
| 2026-05-05 16:59 | 52.80927 | 16.29363 | 884 ft | 109 kts | 54° |
| 2026-05-05 17:00 | 52.81268 | 16.30505 | 893 ft | 106 kts | 59° |
| 2026-05-05 17:00 | 52.81551 | 16.31606 | 907 ft | 107 kts | 74° |
| 2026-05-05 17:00 | 52.81317 | 16.32663 | 922 ft | 120 kts | 148° |
| 2026-05-05 17:00 | 52.80661 | 16.32100 | 992 ft | 116 kts | 265° |
| 2026-05-05 17:01 | 52.81145 | 16.31316 | 948 ft | 104 kts | 5° |
| 2026-05-05 17:01 | 52.81678 | 16.31997 | 963 ft | 103 kts | 58° |
| 2026-05-05 17:01 | 52.82030 | 16.33014 | 1012 ft | 102 kts | 56° |
| 2026-05-05 17:01 | 52.82401 | 16.34033 | 999 ft | 104 kts | 56° |
| 2026-05-05 17:02 | 52.82755 | 16.35092 | 981 ft | 105 kts | 57° |
| 2026-05-05 17:02 | 52.83123 | 16.36025 | 1096 ft | 99 kts | 50° |
| 2026-05-05 17:02 | 52.83601 | 16.37006 | 865 ft | 117 kts | 48° |
| 2026-05-05 17:02 | 52.84148 | 16.37907 | 940 ft | 105 kts | 39° |
| 2026-05-05 17:03 | 52.84764 | 16.38577 | 960 ft | 102 kts | 26° |
| 2026-05-05 17:03 | 52.85382 | 16.38936 | 1098 ft | 98 kts | 17° |
| 2026-05-05 17:03 | 52.86077 | 16.39195 | 1125 ft | 99 kts | 11° |
| 2026-05-05 17:03 | 52.86737 | 16.39298 | 1249 ft | 97 kts | 4° |
| 2026-05-05 17:04 | 52.87445 | 16.39360 | 1260 ft | 100 kts | 8° |
| 2026-05-05 17:04 | 52.88124 | 16.39578 | 1273 ft | 104 kts | 14° |
| 2026-05-05 17:04 | 52.88842 | 16.39861 | 1301 ft | 103 kts | 15° |
| 2026-05-05 17:04 | 52.89525 | 16.40140 | 1397 ft | 98 kts | 17° |
| 2026-05-05 17:05 | 52.90188 | 16.40477 | 1438 ft | 99 kts | 19° |
| 2026-05-05 17:05 | 52.90864 | 16.40854 | 1435 ft | 102 kts | 19° |
| 2026-05-05 17:05 | 52.91548 | 16.41156 | 1481 ft | 102 kts | 15° |
| 2026-05-05 17:05 | 52.92218 | 16.41503 | 1544 ft | 99 kts | 23° |
| 2026-05-05 17:06 | 52.92859 | 16.41953 | 1541 ft | 102 kts | 24° |
| 2026-05-05 17:06 | 52.93508 | 16.42424 | 1615 ft | 99 kts | 23° |
| 2026-05-05 17:06 | 52.94167 | 16.42816 | 1636 ft | 102 kts | 19° |
| 2026-05-05 17:06 | 52.94826 | 16.43236 | 1666 ft | 101 kts | 25° |
| 2026-05-05 17:07 | 52.95446 | 16.43764 | 1746 ft | 99 kts | 28° |
| 2026-05-05 17:07 | 52.96079 | 16.44293 | 1466 ft | 111 kts | 27° |
| 2026-05-05 17:07 | 52.96762 | 16.44846 | 1204 ft | 113 kts | 21° |
| 2026-05-05 17:07 | 52.97537 | 16.45407 | 1225 ft | 123 kts | 26° |
| 2026-05-05 17:08 | 52.98320 | 16.46082 | 1225 ft | 129 kts | 30° |
| 2026-05-05 17:08 | 52.99044 | 16.46802 | 1506 ft | 113 kts | 28° |
| 2026-05-05 17:08 | 52.99862 | 16.47449 | 1095 ft | 142 kts | 27° |
| 2026-05-05 17:08 | 53.00680 | 16.48259 | 1127 ft | 128 kts | 32° |
| 2026-05-05 17:09 | 53.01402 | 16.49048 | 1197 ft | 126 kts | 33° |
| 2026-05-05 17:09 | 53.02125 | 16.49868 | 1257 ft | 123 kts | 34° |
| 2026-05-05 17:09 | 53.02905 | 16.50473 | 1318 ft | 123 kts | 19° |
| 2026-05-05 17:09 | 53.03668 | 16.50903 | 1558 ft | 111 kts | 21° |
| 2026-05-05 17:10 | 53.04416 | 16.51496 | 1406 ft | 129 kts | 26° |
| 2026-05-05 17:10 | 53.05234 | 16.52133 | 1356 ft | 128 kts | 26° |
| 2026-05-05 17:10 | 53.06015 | 16.52838 | 1325 ft | 127 kts | 32° |
| 2026-05-05 17:10 | 53.06711 | 16.53698 | 1367 ft | 122 kts | 39° |
| 2026-05-05 17:11 | 53.07328 | 16.54639 | 1405 ft | 118 kts | 43° |
| 2026-05-05 17:11 | 53.07917 | 16.55681 | 851 ft | 131 kts | 51° |
| 2026-05-05 17:11 | 53.08480 | 16.56779 | 631 ft | 118 kts | 45° |
| 2026-05-05 17:11 | 53.09037 | 16.57716 | 539 ft | 108 kts | 45° |
| 2026-05-05 17:12 | 53.09494 | 16.58637 | 545 ft | 97 kts | 47° |
| 2026-05-05 17:12 | 53.09958 | 16.59416 | 547 ft | 95 kts | 43° |
| 2026-05-05 17:12 | 53.10434 | 16.60135 | 611 ft | 88 kts | 34° |
| 2026-05-05 17:12 | 53.10944 | 16.60699 | 634 ft | 88 kts | 40° |
| 2026-05-05 17:13 | 53.11267 | 16.61555 | 687 ft | 86 kts | 65° |
| 2026-05-05 17:13 | 53.11496 | 16.62470 | 750 ft | 83 kts | 57° |
| 2026-05-05 17:13 | 53.11705 | 16.63401 | 727 ft | 91 kts | 70° |
| 2026-05-05 17:13 | 53.11855 | 16.64438 | 736 ft | 91 kts | 70° |
| 2026-05-05 17:14 | 53.12044 | 16.65415 | 804 ft | 86 kts | 65° |
| 2026-05-05 17:14 | 53.12397 | 16.66301 | 1001 ft | 89 kts | 31° |
| 2026-05-05 17:14 | 53.13081 | 16.66613 | 913 ft | 111 kts | 21° |
| 2026-05-05 17:14 | 53.13730 | 16.67362 | 874 ft | 116 kts | 38° |
| 2026-05-05 17:15 | 53.14390 | 16.68189 | 795 ft | 120 kts | 37° |
| 2026-05-05 17:15 | 53.14922 | 16.68785 | 635 ft | 69 kts | 34° |
| 2026-05-05 17:15 | 53.15300 | 16.69186 | 479 ft | 59 kts | 34° |
| 2026-05-05 17:15 | 53.15639 | 16.69556 | 462 ft | 60 kts | 34° |
| 2026-05-05 17:16 | 53.15992 | 16.69940 | 398 ft | 63 kts | 30° |
| 2026-05-05 17:16 | 53.16380 | 16.70385 | 283 ft | 63 kts | 32° |
| 2026-05-05 17:16 | 53.16623 | 16.70698 | 274 ft | 0 kts | 41° |